Barstow Daggett Airport
KDAG : now visible

Airfield :











YOU CAN JOIN US ON...

 
LOGIN :

Register | Disclaimer

   EN    FR    IT 

 









Legend :    VFR   Marginal VFR   IFR   Intensive IFR   Very Intensive IFR
Visi :
Ceiling :
>= 8 km
>= 3000ft
5 to 8 km
1000 to 3000 ft
1500m to 5 km
500 to 1000 ft
800 to 1500m
200 to 500 ft
< 800m
< 200 ft
Symbols :   Thunderstorms  Fog  Heavy snow  Heavy precipitations  Wind > 20 kt






- Airport Elevation : 1930 ft


KDAG - Barstow Daggett

CURRENT METAR :
  • 211350Z AUTO 26011KT 10SM CLR 17/07 A3002 RMK AO2 SLP142 T01670072

EXPIRED METARs :
  • 211250Z AUTO 27009KT 10SM CLR 16/08 A3000 RMK AO2 SLP136 T01560078
  • 211150Z AUTO 26010KT 10SM CLR 16/08 A3000 RMK AO2 SLP135 T01610078 10244 20161 53001
  • 211050Z AUTO 27010KT 10SM CLR 17/08 A3000 RMK AO2 SLP136 T01720078
  • 210950Z AUTO 27010KT 10SM CLR 18/08 A2999 RMK AO2 SLP132 T01780078

TAF KDAG
Valid from the 21 at 12:00 until the 22 at 12:00 UTC


211120Z 2112/2212 27010KT P6SM SKC
FM212000 07008KT P6SM SKC
FM220300 26010KT P6SM FEW250
KZLA FIR / North America



MET'MAP, your aeronautical weather chart ! - Copyright ORBIFLY December 2007 - Disclaimer

ORBIFLY MET'MAP TEAM :

Programming & Development : Alexandra Zaïnal
Original concept : Baudouin d'Aumeries
Technical & hardware support : Manuel Goepfert
Assistance : Marc-Olivier Méhu




SOURCES & CREDITS :

   NOAA       Earth
Advisory